V.a. San Pedro — WAW957 — position and weather

sailwx.info

Track history (hours):
 
Tides and Currents Weather Stations Pressure Air Temp Water Temp Dewpoint Dewpoint Depression Visibility Wind Speed Wind Dir Waves Ship Positions

V.a. San Pedro

Last reported at 2018-Aug-19 23:01 UTC. Time now 2018-Aug-20 16:49 UTC.
Position N 33°43' W 118°17'.

Length 10 m.

Type: Towing. MMSI: 338181878.

Date/timePositionNaut miles runAvg speedWind from/ knotsBaromVisibWave heightAir tempDewpointWater temp
2018-Aug-19 23:01N 33°43' W 118°17'0 3.3
2018-Aug-19 22:58N 33°43' W 118°17'2 3.7
2018-Aug-19 22:29N 33°43' W 118°15'4 7.5
2018-Aug-19 22:00N 33°45' W 118°11'4 8.1
2018-Aug-19 21:29N 33°41' W 118°12'5 9.2
2018-Aug-19 20:57N 33°44' W 118°17'2 3.6
2018-Aug-19 20:30N 33°43' W 118°15'1 0.0
2018-Aug-19 02:45N 33°43' W 118°16'3 0.6
2018-Aug-18 22:46N 33°40' W 118°17'310.2
2018-Aug-18 22:30N 33°43' W 118°17'0 0.4
2018-Aug-18 21:48N 33°43' W 118°17'  
2018-Aug-16 01:20N 33°43' W 118°17'515.6
2018-Aug-16 01:00N 33°44' W 118°11'3 6.9
2018-Aug-16 00:30N 33°45' W 118°07'2 3.7
2018-Aug-16 00:00N 33°44' W 118°08'4 8.3
2018-Aug-15 23:30N 33°43' W 118°13'3 0.1
2018-Aug-14 20:17N 33°43' W 118°17'0 0.0
2018-Aug-14 19:01N 33°43' W 118°17'0 4.7
2018-Aug-14 18:59N 33°43' W 118°17'3 5.5
2018-Aug-14 18:30N 33°45' W 118°16'1 1.7
2018-Aug-14 18:00N 33°46' W 118°15'3 5.0
2018-Aug-14 17:30N 33°44' W 118°16'1 0.0
2018-Aug-14 01:07N 33°43' W 118°17'0 0.0
2018-Aug-14 00:55N 33°43' W 118°17'0 0.0
2018-Aug-14 00:19N 33°43' W 118°17'0 0.0
2018-Aug-13 19:30N 33°43' W 118°17'0 0.1
2018-Aug-13 18:59N 33°43' W 118°17'1 0.2
2018-Aug-13 15:22N 33°43' W 118°16'410.3
2018-Aug-13 15:00N 33°45' W 118°13'2 2.9
2018-Aug-13 14:28N 33°44' W 118°12'1 2.4
2018-Aug-13 13:55N 33°45' W 118°13'3 0.3
2018-Aug-13 02:06N 33°43' W 118°17'1 5.8
2018-Aug-13 02:00N 33°43' W 118°16'0 0.7
2018-Aug-13 01:30N 33°44' W 118°16'712.4
2018-Aug-13 00:55N 33°44' W 118°25'920.7
2018-Aug-13 00:30N 33°53' W 118°28'5 5.6
2018-Aug-12 23:35N 33°58' W 118°28'1 4.8
2018-Aug-12 23:20N 33°56' W 118°27'3 6.4
2018-Aug-12 22:55N 33°54' W 118°27'3 6.4
2018-Aug-12 22:30N 33°51' W 118°27'3 6.6
2018-Aug-12 22:00N 33°48' W 118°26'5 9.8
2018-Aug-12 21:30N 33°44' W 118°24'611.3
2018-Aug-12 21:00N 33°43' W 118°17'0 0.2
2018-Aug-12 19:36N 33°43' W 118°17'0 0.0
2018-Aug-12 19:12N 33°43' W 118°17'0 0.0
2018-Aug-12 18:18N 33°43' W 118°17'0 0.0
2018-Aug-12 17:57N 33°43' W 118°17'0 0.0
2018-Aug-12 01:04N 33°43' W 118°17'1 8.0
2018-Aug-12 00:55N 33°43' W 118°16'915.1
2018-Aug-12 00:19N 33°46' W 118°26'515.5
2018-Aug-11 23:59N 33°51' W 118°24'1 2.1
2018-Aug-11 23:28N 33°50' W 118°24'3 7.2
2018-Aug-11 23:00N 33°47' W 118°26'9 6.7
2018-Aug-11 21:37N 33°41' W 118°17'1 7.1
2018-Aug-11 21:30N 33°40' W 118°17'4 7.0
2018-Aug-11 20:57N 33°39' W 118°12'3 7.2
2018-Aug-11 20:30N 33°37' W 118°09'0 0.9
2018-Aug-11 19:58N 33°37' W 118°08'9 8.8
2018-Aug-11 18:54N 33°43' W 118°17'0 0.0
2018-Aug-11 18:30N 33°43' W 118°17'0 0.0
2018-Aug-11 18:00N 33°43' W 118°17'0 0.1
2018-Aug-11 15:48N 33°43' W 118°17'812.2
2018-Aug-11 15:09N 33°45' W 118°26'319.6
2018-Aug-11 15:00N 33°47' W 118°27'816.2
2018-Aug-11 14:30N 33°56' W 118°28'1 0.8
2018-Aug-11 13:22N 33°57' W 118°28'3 7.4
2018-Aug-11 13:00N 33°54' W 118°28'4 7.5
2018-Aug-11 12:30N 33°50' W 118°28'29 7.5
2018-Aug-11 08:34N 33°22' W 118°38'1 7.8
2018-Aug-11 08:30N 33°21' W 118°38'4 7.9
2018-Aug-11 08:00N 33°18' W 118°37'7 7.9
2018-Aug-11 07:09N 33°11' W 118°37'28 6.9
2018-Aug-11 03:03N 33°33' W 118°15'519.9
2018-Aug-11 02:48N 33°38' W 118°15'516.7
2018-Aug-11 02:30N 33°43' W 118°16'1 0.7
2018-Aug-11 01:33N 33°43' W 118°17'0 0.0
2018-Aug-11 01:18N 33°43' W 118°17'0 0.0
2018-Aug-10 23:28N 33°43' W 118°17'0 0.8
2018-Aug-10 22:53N 33°43' W 118°17'2 4.6
2018-Aug-10 22:30N 33°43' W 118°15'2 0.4
2018-Aug-10 17:34N 33°43' W 118°17'0 3.2
2018-Aug-10 17:29N 33°43' W 118°17'1 1.9
2018-Aug-10 17:00N 33°44' W 118°16'0 1.0
2018-Aug-10 16:30N 33°44' W 118°16'1 2.6
2018-Aug-10 16:00N 33°43' W 118°17'1 0.0
2018-Aug-10 03:42N 33°43' W 118°17'1 1.5
2018-Aug-10 03:20N 33°43' W 118°16'4 9.8
2018-Aug-10 02:57N 33°45' W 118°13'3 6.5
2018-Aug-10 02:28N 33°44' W 118°10'3 6.6
2018-Aug-10 01:59N 33°45' W 118°13'  
Track history (hours):
 
Tides and Currents Weather Stations Pressure Air Temp Water Temp Dewpoint Dewpoint Depression Visibility Wind Speed Wind Dir Waves Ship Positions

V.a. San Pedro

Last reported at 2018-Aug-19 23:01 UTC. Time now 2018-Aug-20 16:49 UTC.
Position N 33°43' W 118°17'.

Length 10 m.

Type: Towing. MMSI: 338181878.

Date/timePositionNaut miles runAvg speedWind from/ knotsBaromVisibWave heightAir tempDewpointWater temp
2018-Aug-19 23:01N 33°43' W 118°17'0 3.3
2018-Aug-19 22:58N 33°43' W 118°17'2 3.7
2018-Aug-19 22:29N 33°43' W 118°15'4 7.5
2018-Aug-19 22:00N 33°45' W 118°11'4 8.1
2018-Aug-19 21:29N 33°41' W 118°12'5 9.2
2018-Aug-19 20:57N 33°44' W 118°17'2 3.6
2018-Aug-19 20:30N 33°43' W 118°15'1 0.0
2018-Aug-19 02:45N 33°43' W 118°16'3 0.6
2018-Aug-18 22:46N 33°40' W 118°17'310.2
2018-Aug-18 22:30N 33°43' W 118°17'0 0.4
2018-Aug-18 21:48N 33°43' W 118°17'  
2018-Aug-16 01:20N 33°43' W 118°17'515.6
2018-Aug-16 01:00N 33°44' W 118°11'3 6.9
2018-Aug-16 00:30N 33°45' W 118°07'2 3.7
2018-Aug-16 00:00N 33°44' W 118°08'4 8.3
2018-Aug-15 23:30N 33°43' W 118°13'3 0.1
2018-Aug-14 20:17N 33°43' W 118°17'0 0.0
2018-Aug-14 19:01N 33°43' W 118°17'0 4.7
2018-Aug-14 18:59N 33°43' W 118°17'3 5.5
2018-Aug-14 18:30N 33°45' W 118°16'1 1.7
2018-Aug-14 18:00N 33°46' W 118°15'3 5.0
2018-Aug-14 17:30N 33°44' W 118°16'1 0.0
2018-Aug-14 01:07N 33°43' W 118°17'0 0.0
2018-Aug-14 00:55N 33°43' W 118°17'0 0.0
2018-Aug-14 00:19N 33°43' W 118°17'0 0.0
2018-Aug-13 19:30N 33°43' W 118°17'0 0.1
2018-Aug-13 18:59N 33°43' W 118°17'1 0.2
2018-Aug-13 15:22N 33°43' W 118°16'410.3
2018-Aug-13 15:00N 33°45' W 118°13'2 2.9
2018-Aug-13 14:28N 33°44' W 118°12'1 2.4
2018-Aug-13 13:55N 33°45' W 118°13'3 0.3
2018-Aug-13 02:06N 33°43' W 118°17'1 5.8
2018-Aug-13 02:00N 33°43' W 118°16'0 0.7
2018-Aug-13 01:30N 33°44' W 118°16'712.4
2018-Aug-13 00:55N 33°44' W 118°25'920.7
2018-Aug-13 00:30N 33°53' W 118°28'5 5.6
2018-Aug-12 23:35N 33°58' W 118°28'1 4.8
2018-Aug-12 23:20N 33°56' W 118°27'3 6.4
2018-Aug-12 22:55N 33°54' W 118°27'3 6.4
2018-Aug-12 22:30N 33°51' W 118°27'3 6.6
2018-Aug-12 22:00N 33°48' W 118°26'5 9.8
2018-Aug-12 21:30N 33°44' W 118°24'611.3
2018-Aug-12 21:00N 33°43' W 118°17'0 0.2
2018-Aug-12 19:36N 33°43' W 118°17'0 0.0
2018-Aug-12 19:12N 33°43' W 118°17'0 0.0
2018-Aug-12 18:18N 33°43' W 118°17'0 0.0
2018-Aug-12 17:57N 33°43' W 118°17'0 0.0
2018-Aug-12 01:04N 33°43' W 118°17'1 8.0
2018-Aug-12 00:55N 33°43' W 118°16'915.1
2018-Aug-12 00:19N 33°46' W 118°26'515.5
2018-Aug-11 23:59N 33°51' W 118°24'1 2.1
2018-Aug-11 23:28N 33°50' W 118°24'3 7.2
2018-Aug-11 23:00N 33°47' W 118°26'9 6.7
2018-Aug-11 21:37N 33°41' W 118°17'1 7.1
2018-Aug-11 21:30N 33°40' W 118°17'4 7.0
2018-Aug-11 20:57N 33°39' W 118°12'3 7.2
2018-Aug-11 20:30N 33°37' W 118°09'0 0.9
2018-Aug-11 19:58N 33°37' W 118°08'9 8.8
2018-Aug-11 18:54N 33°43' W 118°17'0 0.0
2018-Aug-11 18:30N 33°43' W 118°17'0 0.0
2018-Aug-11 18:00N 33°43' W 118°17'0 0.1
2018-Aug-11 15:48N 33°43' W 118°17'812.2
2018-Aug-11 15:09N 33°45' W 118°26'319.6
2018-Aug-11 15:00N 33°47' W 118°27'816.2
2018-Aug-11 14:30N 33°56' W 118°28'1 0.8
2018-Aug-11 13:22N 33°57' W 118°28'3 7.4
2018-Aug-11 13:00N 33°54' W 118°28'4 7.5
2018-Aug-11 12:30N 33°50' W 118°28'29 7.5
2018-Aug-11 08:34N 33°22' W 118°38'1 7.8
2018-Aug-11 08:30N 33°21' W 118°38'4 7.9
2018-Aug-11 08:00N 33°18' W 118°37'7 7.9
2018-Aug-11 07:09N 33°11' W 118°37'28 6.9
2018-Aug-11 03:03N 33°33' W 118°15'519.9
2018-Aug-11 02:48N 33°38' W 118°15'516.7
2018-Aug-11 02:30N 33°43' W 118°16'1 0.7
2018-Aug-11 01:33N 33°43' W 118°17'0 0.0
2018-Aug-11 01:18N 33°43' W 118°17'0 0.0
2018-Aug-10 23:28N 33°43' W 118°17'0 0.8
2018-Aug-10 22:53N 33°43' W 118°17'2 4.6
2018-Aug-10 22:30N 33°43' W 118°15'2 0.4
2018-Aug-10 17:34N 33°43' W 118°17'0 3.2
2018-Aug-10 17:29N 33°43' W 118°17'1 1.9
2018-Aug-10 17:00N 33°44' W 118°16'0 1.0
2018-Aug-10 16:30N 33°44' W 118°16'1 2.6
2018-Aug-10 16:00N 33°43' W 118°17'1 0.0
2018-Aug-10 03:42N 33°43' W 118°17'1 1.5
2018-Aug-10 03:20N 33°43' W 118°16'4 9.8
2018-Aug-10 02:57N 33°45' W 118°13'3 6.5
2018-Aug-10 02:28N 33°44' W 118°10'3 6.6
2018-Aug-10 01:59N 33°45' W 118°13'  

Dump ship's entire track history